LA5NNA Lyngdal NO current weather conditions

sailwx.info

Wind from 224 at 8 knots gusting 19

Air temperature 6.1° C
Dewpoint 1.4° C

Last reported at 2019-Dec-12 17:55 UTC.
Time now 2019-Dec-12 18:28 UTC

Location: N 58°01' E 007°00'.
View on Google Maps.

See reports from other nearby stations

  
Tides and Currents Weather Stations Pressure Air Temp Water Temp Dewpoint Dewpoint Depression Visibility Wind Speed Wind Dir Waves Ship Positions
date/time (UTC)wind fromknots sea level pressurealtimeterstation pressurevisibilityair tempwater tempwave heightnotes
2019-Dec-12 17:55 224 8 gusting 19 6.1
2019-Dec-12 17:50 169 4 gusting 10 6.7
2019-Dec-12 17:45 177 8 gusting 12 6.7
2019-Dec-12 17:40 213 9 gusting 14 6.7
2019-Dec-12 17:35 215 8 gusting 14 6.1
2019-Dec-12 17:30 196 10 gusting 13 6.1
2019-Dec-12 17:25 193 10 gusting 13 6.1
2019-Dec-12 17:20 185 8 gusting 14 6.1
2019-Dec-12 17:15 194 8 gusting 12 6.1
2019-Dec-12 17:10 191 8 gusting 12 5.6
2019-Dec-12 17:05 196 6 gusting 11 5.6
2019-Dec-12 17:00 195 2 gusting 6 5.6
2019-Dec-12 16:55 178 2 gusting 4 5.6
2019-Dec-12 16:50 163 1 gusting 4 5.6
2019-Dec-12 16:45 155 2 gusting 4 5.6
2019-Dec-12 16:40 139 2 gusting 6 5.6
2019-Dec-12 16:35 135 4 gusting 7 5.6
2019-Dec-12 16:30 141 4 gusting 13 6.1
2019-Dec-12 16:25 159 7 gusting 20 6.7
2019-Dec-12 16:20 192 12 gusting 20 6.7
2019-Dec-12 16:15 191 8 gusting 13 6.7
2019-Dec-12 16:10 188 7 gusting 12 6.7
2019-Dec-12 16:05 195 7 gusting 12 6.7
2019-Dec-12 16:00 226 5 gusting 10 6.7
2019-Dec-12 15:55 227 6 gusting 11 6.7
2019-Dec-12 15:50 205 6 gusting 13 6.7
2019-Dec-12 15:45 226 5 gusting 12 6.7
2019-Dec-12 15:40 225 6 gusting 13 6.7
2019-Dec-12 15:35 234 8 gusting 14 6.7
2019-Dec-12 15:30 253 6 gusting 13 6.7
2019-Dec-12 15:25 253 7 gusting 13 6.7
2019-Dec-12 15:20 220 8 gusting 17 6.7
2019-Dec-12 15:15 195 5 gusting 10 6.7
2019-Dec-12 15:10 209 6 gusting 11 6.7
2019-Dec-12 15:05 187 5 gusting 11 6.7
2019-Dec-12 15:00 222 6 gusting 13 6.7
2019-Dec-12 14:55 213 6 gusting 12 6.7
2019-Dec-12 14:50 220 6 gusting 13 6.7
2019-Dec-12 14:45 199 8 gusting 13 6.7
2019-Dec-12 14:40 214 6 gusting 14 6.7
2019-Dec-12 14:35 209 7 gusting 17 7.2
2019-Dec-12 14:30 180 6 gusting 17 7.2
2019-Dec-12 14:25 219 6 gusting 12 7.2
2019-Dec-12 14:20 223 6 gusting 13 7.2
2019-Dec-12 14:15 212 5 gusting 13 7.2
2019-Dec-12 14:10 225 5 gusting 10 7.2
2019-Dec-12 14:05 232 5 gusting 10 7.2
2019-Dec-12 14:00 224 6 gusting 12 7.2
2019-Dec-12 13:55 220 5 gusting 12 7.2
2019-Dec-12 13:50 204 5 gusting 8 7.2
2019-Dec-12 13:45 228 5 gusting 8 7.8
2019-Dec-12 13:40 241 6 gusting 11 7.8
2019-Dec-12 13:35 229 6 gusting 10 7.8
2019-Dec-12 13:30 198 4 gusting 12 8.3
2019-Dec-12 13:25 229 4 gusting 8 8.3
2019-Dec-12 13:20 225 5 gusting 10 8.3
2019-Dec-12 13:15 249 4 gusting 8 8.3
2019-Dec-12 13:10 245 6 gusting 10 8.3
2019-Dec-12 13:05 209 6 gusting 10 8.3
2019-Dec-12 13:00 233 5 gusting 8 8.3
2019-Dec-12 12:55 237 4 gusting 7 8.3
2019-Dec-12 12:50 233 4 gusting 8 8.3
2019-Dec-12 12:45 241 6 gusting 10 8.9
2019-Dec-12 12:40 221 5 gusting 10 8.9
2019-Dec-12 12:35 262 5 gusting 10 8.9
2019-Dec-12 12:30 248 7 gusting 13 8.9
2019-Dec-12 12:25 239 5 gusting 11 8.9
2019-Dec-12 12:20 233 6 gusting 10 8.3
2019-Dec-12 12:15 218 6 gusting 12 8.3
2019-Dec-12 12:10 240 6 gusting 11 8.3
2019-Dec-12 12:05 238 7 gusting 12 8.3
2019-Dec-12 12:00 246 7 gusting 11 7.8
2019-Dec-12 11:55 258 2 gusting 6 7.2
2019-Dec-12 11:50 250 3 gusting 6 6.7
2019-Dec-12 11:45 276 2 gusting 6 6.1
2019-Dec-12 11:40 273 4 gusting 7 6.1
2019-Dec-12 11:35 146 2 gusting 8 6.1
2019-Dec-12 11:30 214 6 gusting 17 6.1
2019-Dec-12 11:25 186 12 gusting 22 6.7
2019-Dec-12 11:20 199 10 gusting 17 6.7
2019-Dec-12 11:15 225 7 gusting 13 6.7
2019-Dec-12 11:10 238 4 gusting 8 6.7
2019-Dec-12 11:05 228 5 gusting 7 6.7
2019-Dec-12 11:00 234 4 gusting 8 6.7
2019-Dec-12 10:55 246 3 gusting 7 6.7
2019-Dec-12 10:50 257 3 gusting 7 6.1
2019-Dec-12 10:45 244 5 gusting 7 6.1
2019-Dec-12 10:40 220 2 gusting 6 6.1
2019-Dec-12 10:35 229 3 gusting 6 6.1
2019-Dec-12 10:30 237 2 gusting 6 6.1
2019-Dec-12 10:25 224 3 gusting 5 6.1
2019-Dec-12 10:20 240 2 gusting 6 6.1
2019-Dec-12 10:15 236 2 gusting 6 6.1
2019-Dec-12 10:10 195 2 gusting 6 6.1
2019-Dec-12 10:05 239 2 gusting 8 6.1
2019-Dec-12 10:00 170 5 gusting 10 6.1
2019-Dec-12 09:55 191 8 gusting 17 6.7
2019-Dec-12 09:50 194 12 gusting 17 6.7
2019-Dec-12 09:45 162 7 gusting 13 6.7
2019-Dec-12 09:40 151 7 gusting 14 6.7
2019-Dec-12 09:35 158 8 gusting 17 6.7
2019-Dec-12 09:30 151 7 gusting 13 6.7
2019-Dec-12 09:25 143 4 gusting 8 6.7
2019-Dec-12 09:20 139 4 gusting 7 6.7
2019-Dec-12 09:15 168 4 gusting 6 6.7
2019-Dec-12 09:10 168 4 gusting 8 6.7
2019-Dec-12 09:05 201 6 gusting 8 6.7
2019-Dec-12 09:00 197 4 gusting 10 6.7
2019-Dec-12 08:55 195 5 gusting 8 6.7
2019-Dec-12 08:50 199 7 gusting 10 6.7
2019-Dec-12 08:45 211 6 gusting 10 6.7
2019-Dec-12 08:40 201 6 gusting 8 6.7
2019-Dec-12 08:35 203 7 gusting 11 6.7
2019-Dec-12 08:30 195 6 gusting 10 6.7
2019-Dec-12 08:25 190 6 gusting 11 6.7
2019-Dec-12 08:20 193 6 gusting 10 6.7
2019-Dec-12 08:15 178 5 gusting 8 6.1
2019-Dec-12 08:10 207 2 gusting 6 6.7
2019-Dec-12 08:05 219 2 gusting 6 6.7
2019-Dec-12 08:00 234 3 gusting 7 6.7
2019-Dec-12 07:55 259 6 gusting 11 6.7
2019-Dec-12 07:50 265 7 gusting 11 6.7
2019-Dec-12 07:45 246 8 gusting 13 6.7
2019-Dec-12 07:40 231 6 gusting 18 7.2
2019-Dec-12 07:35 209 11 gusting 24 7.2
2019-Dec-12 07:30 201 10 gusting 13 7.2
2019-Dec-12 07:25 192 8 gusting 11 7.2
2019-Dec-12 07:20 195 6 gusting 12 7.2
2019-Dec-12 07:10 224 6 gusting 11 7.2
2019-Dec-12 07:05 193 8 gusting 13 7.2
2019-Dec-12 07:00 197 8 gusting 13 7.2
2019-Dec-12 06:55 192 6 gusting 12 6.7
2019-Dec-12 06:50 174 5 gusting 12 6.7
2019-Dec-12 06:45 192 5 gusting 12 6.7
2019-Dec-12 06:40 224 6 gusting 13 6.7
2019-Dec-12 06:35 221 6 gusting 13 6.7
2019-Dec-12 06:30 223 6 gusting 11 6.7
2019-Dec-12 06:25 199 5 gusting 8 6.7
2019-Dec-12 06:20 245 4 gusting 6 6.7
2019-Dec-12 06:15 216 2 gusting 10 6.7
2019-Dec-12 06:10 203 6 gusting 13 6.7
2019-Dec-12 06:05 199 7 gusting 11 6.7
2019-Dec-12 06:00 198 5 gusting 11 7.2
2019-Dec-12 05:55 216 5 gusting 19 7.2
2019-Dec-12 05:50 221 10 gusting 20 7.2
2019-Dec-12 05:45 203 9 gusting 13 7.2
2019-Dec-12 05:40 200 8 gusting 15 7.2
2019-Dec-12 05:35 192 10 gusting 14 7.2
2019-Dec-12 05:30 196 9 gusting 14 7.2
2019-Dec-12 05:25 192 9 gusting 14 7.2
2019-Dec-12 05:20 202 7 gusting 14 7.2
2019-Dec-12 05:15 192 12 gusting 18 7.2
2019-Dec-12 05:10 191 10 gusting 15 7.2
2019-Dec-12 05:05 198 7 gusting 18 7.2
2019-Dec-12 05:00 210 9 gusting 20 7.2
2019-Dec-12 04:55 186 8 gusting 14 7.2
2019-Dec-12 04:50 190 6 gusting 14 7.2
2019-Dec-12 04:45 214 6 gusting 13 7.2
2019-Dec-12 04:40 197 5 gusting 15 7.2
2019-Dec-12 04:35 216 7 gusting 15 7.2
2019-Dec-12 04:30 217 6 gusting 15 7.2
2019-Dec-12 04:25 212 8 gusting 15 7.2
2019-Dec-12 04:20 195 8 gusting 15 6.7
2019-Dec-12 04:15 195 7 gusting 15 6.7
2019-Dec-12 04:10 234 7 gusting 17 6.7
2019-Dec-12 04:05 188 7 gusting 12 6.7
2019-Dec-12 04:00 187 8 gusting 13 7.2
2019-Dec-12 03:55 182 10 gusting 19 7.2
2019-Dec-12 03:50 193 10 gusting 14 6.7
2019-Dec-12 03:45 204 6 gusting 15 6.7
2019-Dec-12 03:40 224 6 gusting 13 6.7
2019-Dec-12 03:35 207 4 gusting 6 6.7
2019-Dec-12 03:30 219 6 gusting 11 7.2
2019-Dec-12 03:25 188 9 gusting 19 7.2
2019-Dec-12 03:20 214 10 gusting 24 7.2
2019-Dec-12 03:15 231 10 gusting 24 7.8
2019-Dec-12 03:10 206 10 gusting 20 7.8
2019-Dec-12 03:05 202 13 gusting 19 7.8
2019-Dec-12 03:00 188 11 gusting 22 7.8
2019-Dec-12 02:55 194 12 gusting 22 7.2
2019-Dec-12 02:50 187 11 gusting 15 7.2
2019-Dec-12 02:44 188 6 gusting 14 7.2
2019-Dec-12 02:34 188 6 gusting 19 7.2
2019-Dec-12 02:30 190 11 gusting 19 7.2
2019-Dec-12 02:24 203 10 gusting 18 7.2
2019-Dec-12 02:19 192 12 gusting 18 7.2
2019-Dec-12 02:14 190 12 gusting 18 7.2
2019-Dec-12 02:09 190 13 gusting 19 7.2
2019-Dec-12 02:04 188 12 gusting 25 7.2
2019-Dec-12 01:59 190 10 gusting 22 7.2
2019-Dec-12 01:54 222 8 gusting 18 7.2
2019-Dec-12 01:49 193 11 gusting 18 7.2
2019-Dec-12 01:44 187 11 gusting 18 7.2
2019-Dec-12 01:39 195 13 gusting 20 7.2
2019-Dec-12 01:34 187 18 gusting 26 7.2
2019-Dec-12 01:30 217 12 gusting 21 7.2
2019-Dec-12 01:24 209 8 gusting 15 7.2
2019-Dec-12 01:19 233 7 gusting 20 7.2
2019-Dec-12 01:14 203 11 gusting 19 7.2
2019-Dec-12 01:09 194 11 gusting 19 7.2
2019-Dec-12 01:04 201 11 gusting 21 7.2
2019-Dec-12 00:59 220 12 gusting 33 7.8
2019-Dec-12 00:54 186 15 gusting 26 7.8
2019-Dec-12 00:49 187 13 gusting 24 7.2
2019-Dec-12 00:44 189 13 gusting 24 7.2
2019-Dec-12 00:39 195 8 gusting 21 7.2
2019-Dec-12 00:34 191 8 gusting 18 7.2
2019-Dec-12 00:29 200 8 gusting 15 7.2
2019-Dec-12 00:24 185 10 gusting 17 7.2
2019-Dec-12 00:19 190 13 gusting 22 7.8
2019-Dec-12 00:14 190 14 gusting 27 7.8
2019-Dec-12 00:09 208 11 gusting 19 7.8
2019-Dec-12 00:04 192 12 gusting 22 7.8
2019-Dec-11 23:59 191 12 gusting 21 7.8
2019-Dec-11 23:54 204 11 gusting 22 7.8
2019-Dec-11 23:49 195 9 gusting 21 7.8
2019-Dec-11 23:44 195 6 gusting 14 7.8
2019-Dec-11 23:39 228 10 gusting 20 7.8
2019-Dec-11 23:34 205 10 gusting 19 7.8
2019-Dec-11 23:29 220 10 gusting 19 7.8
2019-Dec-11 23:24 203 11 gusting 21 7.8
2019-Dec-11 23:19 195 11 gusting 24 7.8
2019-Dec-11 23:14 215 11 gusting 22 7.8
2019-Dec-11 23:09 193 13 gusting 25 7.8
2019-Dec-11 23:04 191 13 gusting 21 7.8
2019-Dec-11 22:59 193 10 gusting 25 7.8
2019-Dec-11 22:54 189 13 gusting 25 7.8
2019-Dec-11 22:49 200 13 gusting 25 7.8
2019-Dec-11 22:44 188 12 gusting 22 7.8
2019-Dec-11 22:39 200 11 gusting 19 7.2
2019-Dec-11 22:34 190 9 gusting 17 7.8
2019-Dec-11 22:29 214 11 gusting 30 7.8
2019-Dec-11 22:24 196 20 gusting 33 7.8
2019-Dec-11 22:19 198 13 gusting 22 7.8
2019-Dec-11 22:14 203 8 gusting 17 7.8
2019-Dec-11 22:09 203 10 gusting 20 7.8
2019-Dec-11 22:04 200 13 gusting 28 7.8
2019-Dec-11 22:00 190 10 gusting 28 7.8
2019-Dec-11 21:54 186 12 gusting 19 7.8
2019-Dec-11 21:49 220 7 gusting 24 7.8
2019-Dec-11 21:44 219 9 gusting 28 7.8
2019-Dec-11 21:39 220 11 gusting 21 7.8
2019-Dec-11 21:34 207 11 gusting 22 7.8
2019-Dec-11 21:29 187 14 gusting 25 7.8
2019-Dec-11 21:24 222 10 gusting 19 7.8
2019-Dec-11 21:19 207 7 gusting 17 7.8
2019-Dec-11 21:14 229 7 gusting 18 7.8
2019-Dec-11 21:09 223 8 gusting 18 7.8
2019-Dec-11 21:04 235 10 gusting 20 8.3
2019-Dec-11 20:59 216 12 gusting 24 8.3
2019-Dec-11 20:54 198 15 gusting 21 8.3
2019-Dec-11 20:49 199 10 gusting 20 8.3
2019-Dec-11 20:44 223 10 gusting 19 8.3
2019-Dec-11 20:39 209 8 gusting 19 8.3
2019-Dec-11 20:34 189 10 gusting 19 8.3
2019-Dec-11 20:30 206 7 gusting 22 8.3
2019-Dec-11 20:24 189 10 gusting 20 8.3
2019-Dec-11 20:19 206 12 gusting 25 8.3
2019-Dec-11 20:14 225 12 gusting 20 8.3
2019-Dec-11 20:09 210 11 gusting 21 8.3
2019-Dec-11 20:04 223 12 gusting 22 8.3
2019-Dec-11 19:59 222 12 gusting 24 8.3
2019-Dec-11 19:54 200 13 gusting 26 8.3
2019-Dec-11 19:49 190 12 gusting 21 8.3
2019-Dec-11 19:44 180 13 gusting 21 8.3
2019-Dec-11 19:39 200 12 gusting 24 8.3
2019-Dec-11 19:34 199 8 gusting 20 8.3
2019-Dec-11 19:30 192 11 gusting 20 8.3
2019-Dec-11 19:24 187 11 gusting 26 8.3
2019-Dec-11 19:19 202 13 gusting 26 8.3
2019-Dec-11 19:14 194 14 gusting 24 8.3
2019-Dec-11 19:09 209 14 gusting 26 8.3
2019-Dec-11 19:04 206 13 gusting 21 8.3
2019-Dec-11 19:00 201 14 gusting 27 8.3
2019-Dec-11 18:54 188 15 gusting 27 8.3
2019-Dec-11 18:49 199 13 gusting 22 8.3
2019-Dec-11 18:44 192 14 gusting 28 8.3
2019-Dec-11 18:39 219 11 gusting 22 8.3
2019-Dec-11 18:34 189 15 gusting 26 8.3
2019-Dec-11 18:29 187 15 gusting 26 8.3
2019-Dec-11 18:24 185 13 gusting 21 7.8
2019-Dec-11 18:19 191 12 gusting 25 7.8
2019-Dec-11 18:14 201 12 gusting 25 7.8
2019-Dec-11 18:09 202 11 gusting 21 7.8
2019-Dec-11 18:04 215 14 gusting 30 7.8
2019-Dec-11 18:00 208 11 gusting 25 7.8
2019-Dec-11 17:54 214 8 gusting 19 7.8
2019-Dec-11 17:49 231 10 gusting 31 7.8
2019-Dec-11 17:44 199 13 gusting 22 7.8
2019-Dec-11 17:39 188 14 gusting 25 7.8
2019-Dec-11 17:34 189 10 gusting 24 7.8
2019-Dec-11 17:29 195 13 gusting 22 7.8
2019-Dec-11 17:24 203 12 gusting 24 7.8
2019-Dec-11 17:19 224 17 gusting 27 7.8
2019-Dec-11 17:14 195 11 gusting 18 7.8
2019-Dec-11 17:09 200 9 gusting 19 7.8
2019-Dec-11 17:04 187 10 gusting 19 7.8
2019-Dec-11 16:59 217 10 gusting 19 7.8
2019-Dec-11 16:54 214 11 gusting 26 7.8
2019-Dec-11 16:49 229 13 gusting 28 7.8
2019-Dec-11 16:44 223 13 gusting 24 7.8
2019-Dec-11 16:39 207 10 gusting 19 7.8
2019-Dec-11 16:34 194 8 gusting 21 7.8
2019-Dec-11 16:30 229 10 gusting 21 7.8
2019-Dec-11 16:24 202 13 gusting 22 7.8
2019-Dec-11 16:19 204 11 gusting 20 7.8
2019-Dec-11 16:14 216 11 gusting 20 7.8
2019-Dec-11 16:09 186 13 gusting 24 7.8
2019-Dec-11 16:04 196 11 gusting 26 7.8
2019-Dec-11 16:00 211 6 gusting 18 7.8
2019-Dec-11 15:54 213 9 gusting 20 7.8
2019-Dec-11 15:49 182 5 gusting 18 7.8
2019-Dec-11 15:44 237 13 gusting 24 7.8
2019-Dec-11 15:39 208 12 gusting 27 7.8
2019-Dec-11 15:34 197 11 gusting 22 7.8
2019-Dec-11 15:30 185 9 gusting 15 7.8
2019-Dec-11 15:24 195 10 gusting 17 7.8
2019-Dec-11 15:19 184 11 gusting 18 7.8
2019-Dec-11 15:14 187 13 gusting 20 7.8
2019-Dec-11 15:09 189 15 gusting 21 7.8
2019-Dec-11 15:04 225 8 gusting 19 7.8
2019-Dec-11 15:00 217 10 gusting 19 7.8
2019-Dec-11 14:54 226 7 gusting 17 7.8
2019-Dec-11 14:49 236 6 gusting 19 7.8
2019-Dec-11 14:44 220 12 gusting 25 7.8
2019-Dec-11 14:39 236 11 gusting 19 7.8
2019-Dec-11 14:34 207 11 gusting 21 7.8
2019-Dec-11 14:30 201 14 gusting 28 7.8
2019-Dec-11 14:24 201 12 gusting 26 7.8
2019-Dec-11 14:19 223 8 gusting 18 7.8
2019-Dec-11 14:14 207 9 gusting 21 7.8
2019-Dec-11 14:09 199 9 gusting 18 7.8
2019-Dec-11 14:04 207 9 gusting 19 7.8
2019-Dec-11 14:00 201 7 gusting 25 7.8
2019-Dec-11 13:54 201 10 gusting 19 7.8
2019-Dec-11 13:49 224 13 gusting 22 7.8
2019-Dec-11 13:44 251 13 gusting 19 7.8
2019-Dec-11 13:39 249 10 gusting 19 7.8
2019-Dec-11 13:34 235 12 gusting 19 7.8
2019-Dec-11 13:30 243 12 gusting 19 7.8
2019-Dec-11 13:24 223 7 gusting 19 7.8
2019-Dec-11 13:19 206 8 gusting 19 7.8
2019-Dec-11 13:14 235 8 gusting 20 7.8
2019-Dec-11 13:09 239 8 gusting 18 7.2
2019-Dec-11 13:04 253 7 gusting 13 7.2
2019-Dec-11 13:00 235 8 gusting 15 7.2
2019-Dec-11 12:54 264 12 gusting 21 7.8
2019-Dec-11 12:49 261 19 gusting 27 7.8
2019-Dec-11 12:44 265 23 gusting 35 7.8
2019-Dec-11 12:39 231 12 gusting 26 7.8
2019-Dec-11 12:34 258 11 gusting 19 7.8
2019-Dec-11 12:30 265 11 gusting 19 7.8
2019-Dec-11 12:24 256 12 gusting 19 7.8
2019-Dec-11 12:19 219 7 gusting 14 7.2
2019-Dec-11 12:14 204 9 gusting 18 7.2
2019-Dec-11 12:09 229 12 gusting 31 7.2
2019-Dec-11 12:04 218 14 gusting 28 7.8
2019-Dec-11 12:00 221 11 gusting 28 7.8
2019-Dec-11 11:54 231 10 gusting 20 7.8
2019-Dec-11 11:49 237 10 gusting 20 7.8
2019-Dec-11 11:44 247 11 gusting 19 7.8
2019-Dec-11 11:39 249 13 gusting 22 7.8
2019-Dec-11 11:34 234 9 gusting 19 7.8
2019-Dec-11 11:30 245 10 gusting 14 7.8
2019-Dec-11 11:24 262 12 gusting 27 7.8
2019-Dec-11 11:19 226 12 gusting 30 8.3
2019-Dec-11 11:14 228 18 gusting 32 8.3
2019-Dec-11 11:09 234 10 gusting 19 8.3
2019-Dec-11 11:04 216 12 gusting 21 8.3
2019-Dec-11 11:00 239 10 gusting 18 8.3
2019-Dec-11 10:54 241 10 gusting 19 8.3
2019-Dec-11 10:49 240 8 gusting 25 8.3
2019-Dec-11 10:44 242 12 gusting 24 8.3
2019-Dec-11 10:39 244 14 gusting 25 8.3
2019-Dec-11 10:34 239 13 gusting 19 7.8
2019-Dec-11 10:30 255 10 gusting 18 7.8
2019-Dec-11 10:24 242 12 gusting 21 8.3
2019-Dec-11 10:19 258 14 gusting 24 8.3
2019-Dec-11 10:14 268 19 gusting 24 8.3
2019-Dec-11 10:09 264 17 gusting 25 8.3
2019-Dec-11 10:04 259 11 gusting 24 8.3
2019-Dec-11 10:00 236 12 gusting 24 8.3
2019-Dec-11 09:54 262 9 gusting 20 8.3
2019-Dec-11 09:49 224 11 gusting 21 8.3
2019-Dec-11 09:44 233 11 gusting 26 8.3
2019-Dec-11 09:39 256 13 gusting 26 8.3
2019-Dec-11 09:34 259 17 gusting 24 8.3
2019-Dec-11 09:30 255 13 gusting 24 8.3
2019-Dec-11 09:24 257 15 gusting 26 8.3
2019-Dec-11 09:19 252 15 gusting 26 7.8
2019-Dec-11 09:14 250 15 gusting 22 8.3
2019-Dec-11 09:09 251 14 gusting 24 8.3
2019-Dec-11 09:04 257 17 gusting 26 7.8
2019-Dec-11 09:00 263 17 gusting 26 7.8
2019-Dec-11 08:54 261 14 gusting 22 7.8
2019-Dec-11 08:49 252 12 gusting 22 7.8
2019-Dec-11 08:44 230 13 gusting 21 7.8
2019-Dec-11 08:39 223 10 gusting 26 7.8
2019-Dec-11 08:34 227 10 gusting 18 7.8
2019-Dec-11 08:30 267 14 gusting 24 7.8
2019-Dec-11 08:24 254 17 gusting 25 7.8
2019-Dec-11 08:19 254 16 gusting 25 7.8
2019-Dec-11 08:14 260 18 gusting 30 7.8
2019-Dec-11 08:09 257 13 gusting 25 7.8
2019-Dec-11 08:04 231 14 gusting 26 7.8
2019-Dec-11 08:00 231 14 gusting 30 8.3
2019-Dec-11 07:54 242 15 gusting 24 8.3
2019-Dec-11 07:49 264 19 gusting 24 7.8
2019-Dec-11 07:44 259 15 gusting 24 7.8
2019-Dec-11 07:39 266 18 gusting 27 7.8
2019-Dec-11 07:34 236 14 gusting 26 7.8
2019-Dec-11 07:30 251 11 gusting 24 7.8
2019-Dec-11 07:24 252 13 gusting 25 7.8
2019-Dec-11 07:19 254 19 gusting 28 7.8
2019-Dec-11 07:14 272 14 gusting 22 7.8
2019-Dec-11 07:09 265 15 gusting 25 7.2
2019-Dec-11 07:04 266 17 gusting 22 7.2
2019-Dec-11 07:00 266 14 gusting 33 7.8
2019-Dec-11 06:54 275 27 gusting 34 7.8
2019-Dec-11 06:49 239 12 gusting 21 7.8
2019-Dec-11 06:44 242 13 gusting 26 7.8
2019-Dec-11 06:39 244 15 gusting 26 7.8
2019-Dec-11 06:34 263 20 gusting 26 7.8
2019-Dec-11 06:30 267 11 gusting 19 7.8
2019-Dec-11 06:24 261 21 gusting 31 8.3
2019-Dec-11 06:19 247 14 gusting 28 8.3
2019-Dec-11 06:14 265 21 gusting 27 8.3
2019-Dec-11 06:09 261 19 gusting 27 8.3
2019-Dec-11 06:04 262 17 gusting 26 8.3
2019-Dec-11 06:00 260 19 gusting 26 8.3
2019-Dec-11 05:54 265 23 gusting 27 8.3
2019-Dec-11 05:49 250 20 gusting 30 8.3
2019-Dec-11 05:44 264 21 gusting 30 8.3
2019-Dec-11 05:39 258 18 gusting 30 8.3
2019-Dec-11 05:34 267 22 gusting 31 8.3
2019-Dec-11 05:30 253 24 gusting 32 8.3
2019-Dec-11 05:24 270 21 gusting 30 8.3
2019-Dec-11 05:19 266 24 gusting 33 8.3
2019-Dec-11 05:14 265 25 gusting 32 8.3
2019-Dec-11 05:09 267 25 gusting 32 8.3
2019-Dec-11 05:04 262 23 gusting 32 8.3
2019-Dec-11 05:00 266 22 gusting 31 8.3
2019-Dec-11 04:54 258 19 gusting 32 8.3
2019-Dec-11 04:49 264 27 gusting 34 8.3
2019-Dec-11 04:44 266 28 gusting 34 8.3
2019-Dec-11 04:39 264 26 gusting 33 8.3
2019-Dec-11 04:34 258 25 gusting 37 8.3
2019-Dec-11 04:30 267 25 gusting 34 8.3
2019-Dec-11 04:24 263 22 gusting 33 8.3
2019-Dec-11 04:19 268 25 gusting 37 8.3
2019-Dec-11 04:14 265 25 gusting 34 8.3
2019-Dec-11 04:09 258 21 gusting 33 8.3
2019-Dec-11 04:04 267 25 gusting 37 8.3
2019-Dec-11 04:00 261 24 gusting 33 8.3
2019-Dec-11 03:54 265 26 gusting 35 8.3
2019-Dec-11 03:49 267 27 gusting 38 8.3
2019-Dec-11 03:44 257 25 gusting 38 8.3
2019-Dec-11 03:39 264 21 gusting 33 7.8
2019-Dec-11 03:34 272 22 gusting 30 7.8
2019-Dec-11 03:30 272 15 gusting 24 7.8
2019-Dec-11 03:24 272 14 gusting 22 7.8
2019-Dec-11 03:19 269 18 gusting 25 7.8
2019-Dec-11 03:14 269 15 gusting 26 7.8
2019-Dec-11 03:09 269 15 gusting 26 7.8
2019-Dec-11 03:04 282 18 gusting 24 7.8
2019-Dec-11 03:00 270 18 gusting 25 7.2
2019-Dec-11 02:54 272 17 gusting 25 7.2
2019-Dec-11 02:49 274 17 gusting 25 7.2
2019-Dec-11 02:44 271 16 gusting 24 7.2
2019-Dec-11 02:39 278 17 gusting 25 7.2
2019-Dec-11 02:34 287 17 gusting 26 7.2
2019-Dec-11 02:30 296 20 gusting 31 7.2
2019-Dec-11 02:24 276 20 gusting 32 7.8
2019-Dec-11 02:19 278 23 gusting 35 7.8
2019-Dec-11 02:14 294 25 gusting 38 8.3
2019-Dec-11 02:09 264 25 gusting 39 8.3
2019-Dec-11 02:04 262 22 gusting 34 8.3
2019-Dec-11 02:00 260 18 gusting 28 8.3
2019-Dec-11 01:54 267 24 gusting 30 8.3
2019-Dec-11 01:49 268 20 gusting 33 8.3
2019-Dec-11 01:45 263 22 gusting 33 8.3
2019-Dec-11 01:39 266 25 gusting 34 8.3
2019-Dec-11 01:34 259 26 gusting 37 8.3
2019-Dec-11 01:30 270 27 gusting 37 8.9
2019-Dec-11 01:24 255 22 gusting 32 8.9
2019-Dec-11 01:19 252 19 gusting 28 8.9
2019-Dec-11 01:14 257 19 gusting 27 8.9
2019-Dec-11 01:09 256 18 gusting 30 8.9
2019-Dec-11 01:04 247 20 gusting 30 8.9
2019-Dec-11 01:00 263 19 gusting 28 8.9
2019-Dec-11 00:54 252 19 gusting 30 8.9
2019-Dec-11 00:49 265 17 gusting 28 8.9
2019-Dec-11 00:44 263 21 gusting 33 8.9
2019-Dec-11 00:39 262 19 gusting 30 9.4
2019-Dec-11 00:34 259 21 gusting 33 9.4
2019-Dec-11 00:30 237 20 gusting 39 10.0
2019-Dec-11 00:24 213 19 gusting 39 10.0
2019-Dec-11 00:19 202 12 gusting 37 10.0
2019-Dec-11 00:14 194 20 gusting 40 10.0
2019-Dec-11 00:09 193 26 gusting 41 10.0
2019-Dec-11 00:04 195 24 gusting 42 10.0
2019-Dec-11 00:00 196 27 gusting 46 10.0
2019-Dec-10 23:54 196 27 gusting 44 10.0
2019-Dec-10 23:50 195 26 gusting 41 10.0
2019-Dec-10 23:44 195 25 gusting 41 10.0
2019-Dec-10 23:39 193 27 gusting 41 9.4
2019-Dec-10 23:34 188 30 gusting 44 9.4
2019-Dec-10 23:30 192 31 gusting 42 9.4
2019-Dec-10 23:24 194 28 gusting 44 9.4
2019-Dec-10 23:19 194 26 gusting 46 9.4
2019-Dec-10 23:14 193 29 gusting 45 9.4
2019-Dec-10 23:10 192 27 gusting 42 9.4
2019-Dec-10 23:04 205 27 gusting 50 9.4
2019-Dec-10 23:00 196 32 gusting 45 9.4
2019-Dec-10 22:54 190 29 gusting 44 9.4
2019-Dec-10 22:49 201 29 gusting 39 9.4
2019-Dec-10 22:44 187 26 gusting 46 9.4
2019-Dec-10 22:40 195 31 gusting 46 9.4
2019-Dec-10 22:34 190 31 gusting 40 9.4
2019-Dec-10 22:30 194 28 gusting 40 9.4
2019-Dec-10 22:24 190 27 gusting 40 9.4
2019-Dec-10 22:19 186 28 gusting 41 9.4
2019-Dec-10 22:14 189 26 gusting 39 9.4
2019-Dec-10 22:10 191 26 gusting 42 9.4
2019-Dec-10 22:04 183 28 gusting 42 9.4
2019-Dec-10 22:00 189 26 gusting 44 9.4
2019-Dec-10 21:54 187 26 gusting 40 8.9
2019-Dec-10 21:49 185 26 gusting 39 8.9
2019-Dec-10 21:44 188 24 gusting 39 8.9
2019-Dec-10 21:39 192 26 gusting 37 8.9
2019-Dec-10 21:34 183 25 gusting 40 8.9
2019-Dec-10 21:30 185 24 gusting 40 8.9
2019-Dec-10 21:24 183 25 gusting 40 8.9
2019-Dec-10 21:19 187 22 gusting 39 8.9
2019-Dec-10 21:14 183 22 gusting 38 8.9
2019-Dec-10 21:09 178 24 gusting 37 8.9
2019-Dec-10 21:04 182 21 gusting 35 8.9
2019-Dec-10 21:00 182 22 gusting 34 8.3
2019-Dec-10 20:54 180 22 gusting 34 8.3
2019-Dec-10 20:50 180 23 gusting 35 8.3
2019-Dec-10 20:44 178 26 gusting 42 8.3
2019-Dec-10 20:39 179 24 gusting 44 8.3
2019-Dec-10 20:34 179 24 gusting 44 8.3
2019-Dec-10 20:30 180 26 gusting 44 8.3
2019-Dec-10 20:24 177 25 gusting 40 8.3
2019-Dec-10 20:20 181 26 gusting 40 8.3
2019-Dec-10 20:14 178 26 gusting 39 8.3
2019-Dec-10 20:10 176 24 gusting 37 8.3
2019-Dec-10 20:04 182 25 gusting 40 8.3
2019-Dec-10 20:00 177 25 gusting 42 8.3
2019-Dec-10 19:54 177 24 gusting 39 8.3
2019-Dec-10 19:49 182 26 gusting 39 8.3
2019-Dec-10 19:44 178 26 gusting 38 8.3
2019-Dec-10 19:40 172 24 gusting 37 8.3
2019-Dec-10 19:35 186 22 gusting 37 8.3
2019-Dec-10 19:30 175 21 gusting 33 8.3
2019-Dec-10 19:24 179 21 gusting 39 8.3
2019-Dec-10 19:20 180 22 gusting 35 8.3
2019-Dec-10 19:14 176 20 gusting 33 7.8
2019-Dec-10 19:10 178 23 gusting 35 7.8
2019-Dec-10 19:04 178 22 gusting 37 7.8
2019-Dec-10 19:00 180 20 gusting 37 7.8
2019-Dec-10 18:54 175 23 gusting 39 8.3
2019-Dec-10 18:50 178 25 gusting 42 8.3
2019-Dec-10 18:44 176 24 gusting 41 8.3
2019-Dec-10 18:39 175 26 gusting 42 8.3
2019-Dec-10 18:35 176 21 gusting 40 8.3
2019-Dec-10 18:30 176 23 gusting 39 8.3
2019-Dec-10 18:24 178 25 gusting 39 7.8
2019-Dec-10 18:20 176 20 gusting 39 7.8
2019-Dec-10 18:14 176 22 gusting 38 7.8
2019-Dec-10 18:09 174 22 gusting 34 7.8
2019-Dec-10 18:04 175 24 gusting 39 7.8
2019-Dec-10 18:00 175 21 gusting 38 7.8